San Francisco, California
Traffic Map
Current Weather Conditions
San Francisco, California
Few Clouds
Few Clouds
63°
Feels Like: 63°
Wind Chill: 63° Ceiling: Unl
Heat Index: 63° Visibility: 10mi
Dew Point: 50° Wind: 17mph
Humidity: 63% Direction: 280° (W)
Pressure: 29.98in Gusts: 0mph
Raw Report DataKSFO 292256Z 28015KT 10SM FEW006 17/10 A2998 RMK AO2 SLP150 T01720100
Traffic Incident Summary
Active as of:
Severity:
Category:
InformationThere was an issue retrieving the traffic information for this location. Please try a different location or try again shortly.
Advertisements
Track Severe Weather on mobile